createdAt,value
2017-11-06T11:35:07.349Z,17.57
2017-11-06T11:35:20.848Z,17.54
2017-11-06T11:35:34.306Z,17.45
2017-11-06T11:35:47.803Z,17.43
2017-11-06T11:36:00.149Z,17.43
2017-11-06T11:36:13.046Z,17.4
2017-11-06T11:36:25.990Z,17.45
2017-11-06T11:36:38.328Z,17.39
2017-11-06T11:36:51.162Z,17.35
2017-11-06T11:37:04.606Z,17.4
2017-11-06T11:37:18.099Z,17.38
2017-11-06T11:37:31.562Z,17.36
2017-11-06T11:37:45.060Z,17.36
2017-11-06T11:37:58.457Z,17.35
2017-11-06T11:38:11.418Z,17.36
2017-11-06T11:38:24.377Z,17.4
2017-11-06T11:38:37.825Z,17.36
2017-11-06T11:38:50.745Z,17.4
2017-11-06T11:39:04.183Z,17.4
2017-11-06T11:39:17.072Z,17.4
2017-11-06T11:39:30.548Z,17.31
2017-11-06T11:39:43.446Z,17.32
2017-11-06T11:39:56.335Z,17.39
2017-11-06T11:40:09.722Z,17.39
2017-11-06T11:40:22.632Z,17.36
2017-11-06T11:40:36.073Z,17.36
2017-11-06T11:40:47.858Z,17.3
2017-11-06T11:41:01.275Z,17.31
2017-11-06T11:41:14.748Z,17.35
2017-11-06T11:41:27.705Z,17.31
2017-11-06T11:41:41.140Z,17.4
2017-11-06T11:41:54.603Z,17.4
2017-11-06T11:42:08.042Z,17.39
2017-11-06T11:42:21.437Z,17.42
2017-11-06T11:42:34.336Z,17.42
2017-11-06T11:42:47.774Z,17.35
2017-11-06T11:43:00.616Z,17.38
2017-11-06T11:43:12.463Z,17.42
2017-11-06T11:43:25.365Z,17.42
2017-11-06T11:43:38.887Z,17.39
2017-11-06T11:43:51.820Z,17.45
2017-11-06T11:44:05.280Z,17.38
2017-11-06T11:44:18.689Z,17.43
2017-11-06T11:44:31.029Z,17.54
2017-11-06T11:44:44.492Z,17.45
2017-11-06T11:44:57.417Z,17.49
2017-11-06T11:45:10.339Z,17.55
2017-11-06T11:45:23.208Z,17.52
2017-11-06T11:45:36.126Z,17.49
2017-11-06T11:45:49.604Z,17.55
2017-11-06T11:46:03.053Z,17.55
2017-11-06T11:46:14.864Z,17.58
2017-11-06T11:46:28.518Z,17.66
2017-11-06T11:46:41.977Z,17.66
2017-11-06T11:46:55.405Z,17.65
2017-11-06T11:47:08.846Z,17.69
2017-11-06T11:47:21.769Z,17.68
2017-11-06T11:47:34.680Z,17.65
2017-11-06T11:47:47.574Z,17.79
2017-11-06T11:48:00.466Z,17.66
2017-11-06T11:48:13.392Z,17.79
2017-11-06T11:48:26.256Z,17.68
2017-11-06T11:48:39.273Z,17.69
2017-11-06T11:48:51.669Z,17.69
2017-11-06T11:49:04.034Z,17.76
2017-11-06T11:49:16.962Z,17.73
2017-11-06T11:49:29.905Z,17.68
2017-11-06T11:49:42.992Z,17.83
2017-11-06T11:49:56.463Z,17.81
2017-11-06T11:50:09.929Z,17.8
2017-11-06T11:50:23.389Z,17.81
2017-11-06T11:50:36.832Z,17.76
2017-11-06T11:50:49.729Z,17.8
2017-11-06T11:51:03.148Z,17.79
2017-11-06T11:51:16.636Z,17.83
2017-11-06T11:51:28.436Z,17.98
2017-11-06T11:51:41.342Z,17.92
2017-11-06T11:51:54.854Z,17.92
2017-11-06T11:52:07.186Z,18.01
2017-11-06T11:52:20.074Z,18.01
2017-11-06T11:52:32.459Z,17.99
2017-11-06T11:52:45.426Z,17.98
2017-11-06T11:52:58.861Z,18.03
2017-11-06T11:53:11.771Z,17.95
2017-11-06T11:53:25.306Z,17.94
2017-11-06T11:53:38.910Z,17.94
2017-11-06T11:53:52.336Z,17.94
2017-11-06T11:54:05.192Z,18.03
2017-11-06T11:54:18.083Z,18.01
2017-11-06T11:54:31.022Z,18.02
2017-11-06T11:54:44.483Z,18.01
2017-11-06T11:54:57.038Z,18.02
2017-11-06T11:55:09.906Z,17.88
2017-11-06T11:55:23.623Z,17.95
2017-11-06T11:55:37.301Z,18.01
2017-11-06T11:55:50.687Z,18.01
2017-11-06T11:56:02.530Z,17.94
2017-11-06T11:56:15.403Z,17.96
2017-11-06T11:56:28.866Z,17.96
2017-11-06T11:56:42.560Z,17.99
2017-11-06T11:56:55.463Z,18.05
2017-11-06T11:57:07.807Z,17.99
2017-11-06T11:57:21.244Z,17.99
2017-11-06T11:57:34.630Z,18.03
2017-11-06T11:57:48.147Z,17.98
2017-11-06T11:58:01.617Z,18.03
2017-11-06T11:58:15.096Z,18.11
2017-11-06T11:58:28.537Z,18.01
2017-11-06T11:58:41.401Z,18.02
2017-11-06T11:58:54.264Z,18.06
2017-11-06T11:59:07.249Z,18.03
2017-11-06T11:59:20.707Z,18.1
2017-11-06T11:59:34.173Z,18.08
2017-11-06T11:59:47.072Z,18.19
2017-11-06T12:00:00.506Z,18.14
2017-11-06T12:00:13.445Z,18.19
2017-11-06T12:00:26.368Z,18.2
2017-11-06T12:00:38.725Z,18.2
2017-11-06T12:00:52.415Z,18.24
2017-11-06T12:01:04.235Z,18.27
2017-11-06T12:01:17.669Z,18.31
2017-11-06T12:01:30.523Z,18.29
2017-11-06T12:01:43.490Z,18.36
2017-11-06T12:01:56.419Z,18.34
2017-11-06T12:02:09.881Z,18.35
2017-11-06T12:02:22.789Z,18.29
2017-11-06T12:02:36.317Z,18.45
2017-11-06T12:02:49.845Z,18.44
2017-11-06T12:03:03.300Z,18.42
2017-11-06T12:03:15.656Z,18.42
2017-11-06T12:03:27.985Z,18.42
2017-11-06T12:03:41.408Z,18.45
2017-11-06T12:03:54.465Z,18.42
2017-11-06T12:04:06.862Z,18.47
2017-11-06T12:04:19.751Z,18.45
2017-11-06T12:04:33.164Z,18.65
2017-11-06T12:04:46.619Z,18.63
2017-11-06T12:04:59.574Z,18.6
2017-11-06T12:05:13.008Z,18.71
2017-11-06T12:05:25.320Z,18.68
2017-11-06T12:05:38.210Z,18.74
2017-11-06T12:05:51.650Z,18.72
2017-11-06T12:06:04.542Z,18.69
2017-11-06T12:06:17.439Z,18.78
2017-11-06T12:06:29.772Z,18.74
2017-11-06T12:06:42.113Z,18.68
2017-11-06T12:06:55.507Z,18.71
2017-11-06T12:07:08.404Z,18.71
2017-11-06T12:07:20.764Z,18.72
2017-11-06T12:07:34.196Z,18.65
2017-11-06T12:07:47.143Z,18.61
2017-11-06T12:08:00.003Z,18.6
2017-11-06T12:08:12.345Z,18.53
2017-11-06T12:08:25.260Z,18.56
2017-11-06T12:08:38.150Z,18.61
2017-11-06T12:08:51.120Z,18.54
2017-11-06T12:09:04.584Z,18.54
2017-11-06T12:09:17.477Z,18.57
2017-11-06T12:09:30.391Z,18.63
2017-11-06T12:09:42.247Z,18.6
2017-11-06T12:09:55.758Z,18.59
2017-11-06T12:10:08.669Z,18.54
2017-11-06T12:10:21.036Z,18.49
2017-11-06T12:10:34.434Z,18.5
2017-11-06T12:10:47.903Z,18.5
2017-11-06T12:11:01.306Z,18.42
2017-11-06T12:11:14.192Z,18.5
2017-11-06T12:11:27.649Z,18.42
2017-11-06T12:11:40.554Z,18.53
2017-11-06T12:11:53.502Z,18.44
2017-11-06T12:12:06.388Z,18.51
2017-11-06T12:12:19.836Z,18.42
2017-11-06T12:12:32.175Z,18.49
2017-11-06T12:12:45.077Z,18.44
2017-11-06T12:12:58.042Z,18.47
2017-11-06T12:13:10.942Z,18.42
2017-11-06T12:13:23.864Z,18.5
2017-11-06T12:13:36.238Z,18.49
2017-11-06T12:13:49.776Z,18.39
2017-11-06T12:14:03.196Z,18.39
2017-11-06T12:14:16.334Z,18.44
2017-11-06T12:14:28.731Z,18.44
2017-11-06T12:14:42.211Z,18.45
2017-11-06T12:14:55.661Z,18.39
2017-11-06T12:15:09.101Z,18.44
2017-11-06T12:15:21.933Z,18.45
2017-11-06T12:15:34.316Z,18.44
2017-11-06T12:15:47.757Z,18.47
2017-11-06T12:16:00.640Z,18.49
2017-11-06T12:16:13.516Z,18.51
2017-11-06T12:16:26.418Z,18.53
2017-11-06T12:16:39.287Z,18.6
2017-11-06T12:16:52.732Z,18.6
2017-11-06T12:17:06.174Z,18.6
2017-11-06T12:17:19.087Z,18.54
2017-11-06T12:17:32.488Z,18.66
2017-11-06T12:17:45.942Z,18.53
2017-11-06T12:17:58.906Z,18.5
2017-11-06T12:18:12.364Z,18.56
2017-11-06T12:18:24.712Z,18.5
2017-11-06T12:18:37.645Z,18.47
2017-11-06T12:18:50.646Z,18.61
2017-11-06T12:19:04.054Z,18.57
2017-11-06T12:19:17.486Z,18.59
2017-11-06T12:19:30.402Z,18.65
2017-11-06T12:19:43.905Z,18.56
2017-11-06T12:19:56.793Z,18.69
2017-11-06T12:20:09.113Z,18.65
2017-11-06T12:20:22.042Z,18.68
2017-11-06T12:20:35.461Z,18.66
2017-11-06T12:20:48.364Z,18.66
2017-11-06T12:21:01.764Z,18.69
2017-11-06T12:21:14.665Z,18.72
2017-11-06T12:21:26.421Z,18.71
2017-11-06T12:21:39.345Z,18.72
2017-11-06T12:21:52.820Z,18.72
2017-11-06T12:22:05.758Z,18.78
2017-11-06T12:22:18.722Z,18.78
2017-11-06T12:22:32.240Z,18.76
2017-11-06T12:22:45.122Z,18.86
2017-11-06T12:22:58.533Z,18.81
2017-11-06T12:23:11.994Z,18.91
2017-11-06T12:23:25.417Z,18.97
2017-11-06T12:23:38.306Z,18.96
2017-11-06T12:23:51.813Z,18.99
2017-11-06T12:24:05.258Z,18.97
2017-11-06T12:24:17.643Z,18.96
2017-11-06T12:24:30.036Z,18.96
2017-11-06T12:24:43.463Z,18.97
2017-11-06T12:24:56.887Z,18.93
2017-11-06T12:25:09.248Z,18.82
2017-11-06T12:25:22.153Z,18.89
2017-11-06T12:25:34.506Z,18.82
2017-11-06T12:25:47.972Z,18.82
2017-11-06T12:26:01.333Z,18.79
2017-11-06T12:26:14.756Z,18.86
2017-11-06T12:26:28.257Z,18.81
2017-11-06T12:26:41.669Z,18.72
2017-11-06T12:26:54.637Z,18.71
2017-11-06T12:27:07.489Z,18.68
2017-11-06T12:27:20.338Z,18.65
2017-11-06T12:27:33.271Z,18.57
2017-11-06T12:27:46.696Z,18.68
2017-11-06T12:27:59.059Z,18.53
2017-11-06T12:28:12.523Z,18.53
2017-11-06T12:28:25.512Z,18.6
2017-11-06T12:28:38.423Z,18.53
2017-11-06T12:28:50.225Z,18.57
2017-11-06T12:29:03.144Z,18.56
2017-11-06T12:29:16.568Z,18.53
2017-11-06T12:29:29.524Z,18.56
2017-11-06T12:29:41.861Z,18.45
2017-11-06T12:29:55.356Z,18.45
2017-11-06T12:30:07.750Z,18.42
2017-11-06T12:30:21.163Z,18.44
2017-11-06T12:30:32.989Z,18.41
2017-11-06T12:30:46.495Z,18.45
2017-11-06T12:30:59.963Z,18.39
2017-11-06T12:31:12.856Z,18.5
2017-11-06T12:31:25.710Z,18.41
2017-11-06T12:31:38.613Z,18.49
2017-11-06T12:31:51.509Z,18.44
2017-11-06T12:32:04.950Z,18.45
2017-11-06T12:32:17.907Z,18.5
2017-11-06T12:32:31.309Z,18.5
2017-11-06T12:32:44.714Z,18.53
2017-11-06T12:32:57.677Z,18.59
2017-11-06T12:33:11.116Z,18.57
2017-11-06T12:33:24.509Z,18.56
2017-11-06T12:33:37.449Z,18.59
2017-11-06T12:33:50.339Z,18.63
2017-11-06T12:34:03.457Z,18.57
2017-11-06T12:34:16.840Z,18.63
2017-11-06T12:34:30.289Z,18.68
2017-11-06T12:34:43.755Z,18.68
2017-11-06T12:34:56.675Z,18.65
2017-11-06T12:35:09.560Z,18.71
2017-11-06T12:35:22.421Z,18.66
2017-11-06T12:35:34.785Z,18.56
2017-11-06T12:35:47.091Z,18.53
2017-11-06T12:36:00.478Z,18.59
2017-11-06T12:36:12.304Z,18.54
2017-11-06T12:36:25.793Z,18.57
2017-11-06T12:36:38.711Z,18.57
2017-11-06T12:36:52.130Z,18.59
2017-11-06T12:37:05.626Z,18.53
2017-11-06T12:37:19.073Z,18.63
2017-11-06T12:37:32.522Z,18.57
2017-11-06T12:37:45.948Z,18.71
2017-11-06T12:37:58.321Z,18.68
2017-11-06T12:38:11.808Z,18.72
2017-11-06T12:38:24.722Z,18.72
2017-11-06T12:38:38.126Z,18.75
2017-11-06T12:38:51.592Z,18.79
2017-11-06T12:39:05.043Z,18.81
2017-11-06T12:39:17.893Z,18.82
2017-11-06T12:39:31.354Z,18.87
2017-11-06T12:39:44.228Z,18.87
2017-11-06T12:39:57.690Z,18.89
2017-11-06T12:40:10.605Z,18.87
2017-11-06T12:40:24.049Z,18.9
2017-11-06T12:40:37.431Z,18.9
2017-11-06T12:40:50.364Z,18.87
2017-11-06T12:41:02.719Z,18.87
2017-11-06T12:41:15.636Z,18.91
2017-11-06T12:41:30.551Z,18.86
2017-11-06T12:41:43.466Z,18.9
2017-11-06T12:41:56.397Z,18.84
2017-11-06T12:42:09.842Z,18.86
2017-11-06T12:42:23.286Z,18.81
2017-11-06T12:42:36.735Z,18.81
2017-11-06T12:42:49.673Z,18.82
2017-11-06T12:43:03.115Z,18.81
2017-11-06T12:43:16.524Z,18.81
2017-11-06T12:43:29.437Z,18.78
2017-11-06T12:43:42.859Z,18.79
2017-11-06T12:43:55.802Z,18.78
2017-11-06T12:44:08.780Z,18.76
2017-11-06T12:44:22.222Z,18.71
2017-11-06T12:44:34.539Z,18.78
2017-11-06T12:44:47.420Z,18.75
2017-11-06T12:44:59.779Z,18.75
2017-11-06T12:45:13.209Z,18.89
2017-11-06T12:45:26.124Z,18.87
2017-11-06T12:45:39.059Z,18.89
2017-11-06T12:45:52.519Z,18.91
2017-11-06T12:46:05.991Z,19.02
2017-11-06T12:46:18.860Z,18.96
2017-11-06T12:46:32.284Z,19.05
2017-11-06T12:46:45.162Z,18.99
2017-11-06T12:46:58.590Z,19.06
2017-11-06T12:47:10.986Z,19.12
2017-11-06T12:47:24.421Z,19.13
2017-11-06T12:47:38.633Z,19.12
2017-11-06T12:47:52.115Z,19.16
2017-11-06T12:48:04.980Z,19.23
2017-11-06T12:48:17.851Z,19.2
2017-11-06T12:48:32.750Z,19.23
2017-11-06T12:48:45.374Z,19.19
2017-11-06T12:48:58.369Z,19.27
2017-11-06T12:49:12.056Z,19.3
2017-11-06T12:49:24.435Z,19.3
2017-11-06T12:49:37.377Z,19.28
2017-11-06T12:49:50.311Z,19.24
2017-11-06T12:50:02.676Z,19.32
2017-11-06T12:50:15.573Z,19.35
2017-11-06T12:50:28.999Z,19.35
2017-11-06T12:50:41.866Z,19.35
2017-11-06T12:50:54.771Z,19.37
2017-11-06T12:51:06.563Z,19.35
2017-11-06T12:51:19.457Z,19.4
2017-11-06T12:51:32.839Z,19.46
2017-11-06T12:51:45.737Z,19.42
2017-11-06T12:51:58.653Z,19.45
2017-11-06T12:52:11.540Z,19.45
2017-11-06T12:52:24.989Z,19.4
2017-11-06T12:52:37.316Z,19.43
2017-11-06T12:52:50.657Z,19.4
2017-11-06T12:53:03.565Z,19.49
2017-11-06T12:53:17.019Z,19.37
2017-11-06T12:53:29.425Z,19.42
2017-11-06T12:53:42.606Z,19.49
2017-11-06T12:53:55.004Z,19.52
2017-11-06T12:54:08.445Z,19.45
2017-11-06T12:54:21.369Z,19.49
2017-11-06T12:54:34.765Z,19.55
2017-11-06T12:54:48.242Z,19.61
2017-11-06T12:55:01.708Z,19.6
2017-11-06T12:55:15.611Z,19.63
2017-11-06T12:55:29.033Z,19.65
2017-11-06T12:55:41.927Z,19.65
2017-11-06T12:55:55.068Z,19.65
2017-11-06T12:56:08.479Z,19.7
2017-11-06T12:56:21.377Z,19.71
2017-11-06T12:56:34.329Z,19.74
2017-11-06T12:56:46.733Z,19.78
2017-11-06T12:57:00.204Z,19.72
2017-11-06T12:57:13.110Z,19.75
2017-11-06T12:57:25.993Z,19.72
2017-11-06T12:57:39.428Z,19.72
2017-11-06T12:57:52.201Z,19.68
2017-11-06T12:58:05.109Z,19.68
2017-11-06T12:58:18.000Z,19.7
2017-11-06T12:58:31.891Z,19.7
2017-11-06T12:58:45.363Z,19.64
2017-11-06T12:58:58.246Z,19.61
2017-11-06T12:59:11.643Z,19.64
2017-11-06T12:59:24.530Z,19.61
2017-11-06T12:59:37.443Z,19.6
2017-11-06T12:59:50.941Z,19.53
2017-11-06T13:00:03.300Z,19.49
2017-11-06T13:00:16.700Z,19.46
2017-11-06T13:00:30.177Z,19.52
2017-11-06T13:00:43.104Z,19.49
2017-11-06T13:00:56.538Z,19.53
2017-11-06T13:01:09.964Z,19.5
2017-11-06T13:01:23.458Z,19.42
2017-11-06T13:01:36.895Z,19.42
2017-11-06T13:01:50.265Z,19.35
2017-11-06T13:02:03.719Z,19.42
2017-11-06T13:02:16.080Z,19.42
2017-11-06T13:02:29.038Z,19.43
2017-11-06T13:02:41.938Z,19.42
2017-11-06T13:02:54.794Z,19.43
2017-11-06T13:03:08.186Z,19.4
2017-11-06T13:03:21.084Z,19.45
2017-11-06T13:03:34.027Z,19.45
2017-11-06T13:03:46.384Z,19.42
2017-11-06T13:03:59.308Z,19.46
2017-11-06T13:04:12.898Z,19.4
2017-11-06T13:04:26.038Z,19.31
2017-11-06T13:04:38.902Z,19.46
2017-11-06T13:04:51.823Z,19.42
2017-11-06T13:05:04.778Z,19.45
2017-11-06T13:05:17.694Z,19.4
2017-11-06T13:05:31.086Z,19.42
2017-11-06T13:05:44.568Z,19.4
2017-11-06T13:05:57.491Z,19.47
2017-11-06T13:06:10.367Z,19.37
2017-11-06T13:06:23.305Z,19.43
2017-11-06T13:06:36.203Z,19.43
2017-11-06T13:06:49.628Z,19.52
2017-11-06T13:07:02.483Z,19.52
2017-11-06T13:07:15.920Z,19.55
2017-11-06T13:07:29.365Z,19.5
2017-11-06T13:07:42.775Z,19.45
2017-11-06T13:07:56.199Z,19.55
2017-11-06T13:08:09.687Z,19.55
2017-11-06T13:08:23.113Z,19.63
2017-11-06T13:08:36.495Z,19.53
2017-11-06T13:08:49.415Z,19.6
2017-11-06T13:09:02.284Z,19.61
2017-11-06T13:09:15.770Z,19.55
2017-11-06T13:09:29.209Z,19.67
2017-11-06T13:09:42.631Z,19.67
2017-11-06T13:09:55.020Z,19.68
2017-11-06T13:10:07.392Z,19.67
2017-11-06T13:10:20.866Z,19.72
2017-11-06T13:10:34.331Z,19.82
2017-11-06T13:10:46.720Z,19.74
2017-11-06T13:10:59.644Z,19.79
2017-11-06T13:11:12.004Z,19.89
2017-11-06T13:11:25.513Z,19.89
2017-11-06T13:11:39.009Z,19.83
2017-11-06T13:11:51.371Z,19.82
2017-11-06T13:12:04.219Z,19.97
2017-11-06T13:12:17.871Z,19.93
2017-11-06T13:12:30.742Z,19.98
2017-11-06T13:12:43.674Z,20
2017-11-06T13:12:57.102Z,19.98
2017-11-06T13:13:10.533Z,19.97
2017-11-06T13:13:23.918Z,20
2017-11-06T13:13:37.362Z,19.97
2017-11-06T13:13:49.716Z,19.98
2017-11-06T13:14:02.070Z,19.98
2017-11-06T13:14:15.058Z,19.98
2017-11-06T13:14:27.352Z,20.07
2017-11-06T13:14:40.194Z,20.07
2017-11-06T13:14:53.626Z,20.15
2017-11-06T13:15:05.982Z,20.12
2017-11-06T13:15:18.365Z,20.12
2017-11-06T13:15:31.810Z,20.15
2017-11-06T13:15:45.258Z,20.15
2017-11-06T13:15:58.154Z,20.18
2017-11-06T13:16:11.617Z,20.15
2017-11-06T13:16:24.550Z,20.2
2017-11-06T13:16:37.442Z,20.16
2017-11-06T13:16:50.898Z,20.15
2017-11-06T13:17:03.473Z,20.16
2017-11-06T13:17:16.374Z,20.18
2017-11-06T13:17:28.782Z,20.16
2017-11-06T13:17:41.153Z,20.16
2017-11-06T13:17:53.740Z,20.19
2017-11-06T13:18:06.632Z,20.16
2017-11-06T13:18:18.973Z,20.16
2017-11-06T13:18:32.440Z,20.29
2017-11-06T13:18:45.904Z,20.32
2017-11-06T13:18:59.363Z,20.34
2017-11-06T13:19:12.270Z,20.37
2017-11-06T13:19:24.647Z,20.3
2017-11-06T13:19:38.123Z,20.4
2017-11-06T13:19:51.001Z,20.42
2017-11-06T13:20:02.810Z,20.4
2017-11-06T13:20:16.248Z,20.37
2017-11-06T13:20:28.604Z,20.38
2017-11-06T13:20:42.036Z,20.37
2017-11-06T13:20:54.932Z,20.35
2017-11-06T13:21:07.857Z,20.23
2017-11-06T13:21:21.315Z,20.27
2017-11-06T13:21:34.770Z,20.27
2017-11-06T13:21:48.143Z,20.27
2017-11-06T13:22:01.536Z,20.27
2017-11-06T13:22:14.966Z,20.23
2017-11-06T13:22:27.812Z,20.16
2017-11-06T13:22:40.204Z,20.19
2017-11-06T13:22:52.536Z,20.12
2017-11-06T13:23:04.368Z,20.18
2017-11-06T13:23:17.287Z,20.23
2017-11-06T13:23:30.191Z,20.15
2017-11-06T13:23:43.139Z,20.2
2017-11-06T13:23:56.558Z,20.16
2017-11-06T13:24:09.982Z,20.15
2017-11-06T13:24:23.398Z,20.15
2017-11-06T13:24:36.353Z,20.16
2017-11-06T13:24:49.245Z,20.12
2017-11-06T13:25:02.625Z,20.18
2017-11-06T13:25:15.046Z,20.12
2017-11-06T13:25:27.978Z,19.95
2017-11-06T13:25:41.474Z,20
2017-11-06T13:25:54.917Z,19.9
2017-11-06T13:26:08.382Z,19.9
2017-11-06T13:26:21.889Z,19.85
2017-11-06T13:26:34.784Z,19.92
2017-11-06T13:26:47.694Z,19.8
2017-11-06T13:27:01.126Z,19.82
2017-11-06T13:27:14.025Z,19.75
2017-11-06T13:27:27.472Z,19.72
2017-11-06T13:27:40.352Z,19.7
2017-11-06T13:27:52.203Z,19.68
2017-11-06T13:28:05.696Z,19.71
2017-11-06T13:28:17.473Z,19.71
2017-11-06T13:28:30.394Z,19.67
2017-11-06T13:28:43.847Z,19.72
2017-11-06T13:28:57.310Z,19.7
2017-11-06T13:29:09.653Z,19.78
2017-11-06T13:29:22.555Z,19.72
2017-11-06T13:29:35.931Z,19.74
2017-11-06T13:29:49.331Z,19.74
2017-11-06T13:30:02.769Z,19.74
2017-11-06T13:30:15.118Z,19.71
2017-11-06T13:30:27.431Z,19.8
2017-11-06T13:30:40.899Z,19.74
2017-11-06T13:30:53.840Z,19.74
2017-11-06T13:31:06.219Z,19.82
2017-11-06T13:31:19.132Z,19.78
2017-11-06T13:31:32.566Z,19.78
2017-11-06T13:31:45.444Z,19.79
2017-11-06T13:31:57.832Z,19.8
2017-11-06T13:32:09.687Z,19.78
2017-11-06T13:32:23.152Z,19.74
2017-11-06T13:32:36.658Z,19.79
2017-11-06T13:32:50.081Z,19.82
2017-11-06T13:33:02.440Z,19.89
2017-11-06T13:33:14.244Z,19.86
2017-11-06T13:33:27.717Z,19.8
2017-11-06T13:33:40.633Z,19.87
2017-11-06T13:33:54.086Z,19.85
2017-11-06T13:34:07.545Z,19.8
2017-11-06T13:34:21.165Z,19.86
2017-11-06T13:34:34.575Z,19.89
2017-11-06T13:34:46.987Z,19.82
2017-11-06T13:34:59.389Z,19.78
2017-11-06T13:35:11.760Z,19.8
2017-11-06T13:35:24.083Z,19.78
2017-11-06T13:35:37.527Z,19.72
2017-11-06T13:35:49.917Z,19.72
2017-11-06T13:36:02.853Z,19.7
2017-11-06T13:36:15.226Z,19.75
2017-11-06T13:36:28.678Z,19.72
2017-11-06T13:36:41.570Z,19.72
2017-11-06T13:36:53.954Z,19.72
2017-11-06T13:37:06.885Z,19.67
2017-11-06T13:37:20.313Z,19.65
2017-11-06T13:37:33.773Z,19.64
2017-11-06T13:37:46.734Z,19.67
2017-11-06T13:37:59.596Z,19.67
2017-11-06T13:38:12.464Z,19.7
2017-11-06T13:38:24.807Z,19.63
2017-11-06T13:38:37.184Z,19.67
2017-11-06T13:38:50.013Z,19.61
2017-11-06T13:39:03.502Z,19.61
2017-11-06T13:39:16.917Z,19.52
2017-11-06T13:39:30.400Z,19.56
2017-11-06T13:39:43.806Z,19.57
2017-11-06T13:39:57.206Z,19.61
2017-11-06T13:40:10.101Z,19.57
2017-11-06T13:40:23.029Z,19.57
2017-11-06T13:40:35.373Z,19.6
2017-11-06T13:40:48.269Z,19.47
2017-11-06T13:41:01.168Z,19.6
2017-11-06T13:41:14.642Z,19.46
2017-11-06T13:41:28.111Z,19.52
2017-11-06T13:41:41.063Z,19.5
2017-11-06T13:41:54.504Z,19.4
2017-11-06T13:42:07.366Z,19.38
2017-11-06T13:42:20.766Z,19.3
2017-11-06T13:42:33.673Z,19.34
2017-11-06T13:42:47.162Z,19.35
2017-11-06T13:43:00.635Z,19.38
2017-11-06T13:43:13.516Z,19.43
2017-11-06T13:43:27.005Z,19.34
2017-11-06T13:43:38.827Z,19.38
2017-11-06T13:43:52.340Z,19.35
2017-11-06T13:44:05.242Z,19.24
2017-11-06T13:44:17.089Z,19.28
2017-11-06T13:44:30.124Z,19.4
2017-11-06T13:44:43.551Z,19.34
2017-11-06T13:44:57.019Z,19.37
2017-11-06T13:45:10.468Z,19.37
2017-11-06T13:45:23.369Z,19.43
2017-11-06T13:45:36.780Z,19.4
2017-11-06T13:45:49.663Z,19.43
2017-11-06T13:46:03.126Z,19.37
2017-11-06T13:46:16.559Z,19.35
2017-11-06T13:46:28.888Z,19.24
2017-11-06T13:46:41.796Z,19.34
2017-11-06T13:46:54.212Z,19.23
2017-11-06T13:47:07.104Z,19.17
2017-11-06T13:47:20.545Z,19.24
2017-11-06T13:47:33.456Z,19.24
2017-11-06T13:47:46.390Z,19.19
2017-11-06T13:47:59.310Z,19.23
2017-11-06T13:48:12.230Z,19.19
2017-11-06T13:48:25.673Z,19.16
2017-11-06T13:48:39.110Z,19.15
2017-11-06T13:48:52.011Z,19.19
2017-11-06T13:49:04.929Z,19.16
2017-11-06T13:49:17.283Z,19.1
2017-11-06T13:49:30.850Z,19.13
2017-11-06T13:49:43.766Z,19.07
2017-11-06T13:49:56.633Z,18.99
2017-11-06T13:50:10.095Z,19.12
2017-11-06T13:50:23.606Z,19.02
2017-11-06T13:50:37.025Z,19.07
2017-11-06T13:50:50.523Z,18.99
2017-11-06T13:51:03.398Z,19.05
2017-11-06T13:51:16.346Z,19.1
2017-11-06T13:51:29.792Z,18.93
2017-11-06T13:51:43.242Z,19.09
2017-11-06T13:51:55.588Z,18.93
2017-11-06T13:52:08.502Z,19.1
2017-11-06T13:52:21.890Z,19.05
2017-11-06T13:52:34.774Z,19.02
2017-11-06T13:52:47.667Z,19.06
2017-11-06T13:53:00.588Z,19
2017-11-06T13:53:13.528Z,18.87
2017-11-06T13:53:26.415Z,18.97
2017-11-06T13:53:39.830Z,18.94
2017-11-06T13:53:53.252Z,18.93
2017-11-06T13:54:06.678Z,18.93
2017-11-06T13:54:19.606Z,18.94
2017-11-06T13:54:32.102Z,18.91
2017-11-06T13:54:45.074Z,18.96
2017-11-06T13:54:57.420Z,18.94
2017-11-06T13:55:10.865Z,18.9
2017-11-06T13:55:23.738Z,18.89
2017-11-06T13:55:36.642Z,18.96
2017-11-06T13:55:49.563Z,18.96
2017-11-06T13:56:01.897Z,18.91
2017-11-06T13:56:15.352Z,18.97
2017-11-06T13:56:28.789Z,18.96
2017-11-06T13:56:41.661Z,18.97
2017-11-06T13:56:54.559Z,18.99
2017-11-06T13:57:07.404Z,18.99
2017-11-06T13:57:20.287Z,18.97
2017-11-06T13:57:33.757Z,18.89
2017-11-06T13:57:47.173Z,18.87
2017-11-06T13:58:00.594Z,18.9
2017-11-06T13:58:13.525Z,18.97
2017-11-06T13:58:26.426Z,18.93
2017-11-06T13:58:39.861Z,18.91
2017-11-06T13:58:53.318Z,18.9
2017-11-06T13:59:06.810Z,18.87
2017-11-06T13:59:19.721Z,18.91
2017-11-06T13:59:32.617Z,18.94
2017-11-06T13:59:45.501Z,18.91
2017-11-06T13:59:58.378Z,18.89
2017-11-06T14:00:10.194Z,18.99
2017-11-06T14:00:23.638Z,18.96
2017-11-06T14:00:37.161Z,18.91
2017-11-06T14:00:50.039Z,18.99
2017-11-06T14:01:02.386Z,18.91
2017-11-06T14:01:16.077Z,18.96
2017-11-06T14:01:28.926Z,18.9
2017-11-06T14:01:42.250Z,18.93
2017-11-06T14:01:55.368Z,18.93
2017-11-06T14:02:08.270Z,18.96
2017-11-06T14:02:20.674Z,18.91
2017-11-06T14:02:34.194Z,18.94
2017-11-06T14:02:47.635Z,18.97
2017-11-06T14:03:01.100Z,19.02
2017-11-06T14:03:14.027Z,18.91
2017-11-06T14:03:26.359Z,18.97
2017-11-06T14:03:39.786Z,18.9
2017-11-06T14:03:53.217Z,18.93
2017-11-06T14:04:06.120Z,18.87
2017-11-06T14:04:18.459Z,18.84
2017-11-06T14:04:31.596Z,18.75
2017-11-06T14:04:44.963Z,18.78
2017-11-06T14:04:58.421Z,18.81
2017-11-06T14:05:10.808Z,18.79
2017-11-06T14:05:24.270Z,18.75
2017-11-06T14:05:37.676Z,18.69
2017-11-06T14:05:50.017Z,18.69
2017-11-06T14:06:02.885Z,18.72
2017-11-06T14:06:15.731Z,18.71
2017-11-06T14:06:29.153Z,18.76
2017-11-06T14:06:41.463Z,18.69
2017-11-06T14:06:54.382Z,18.69
2017-11-06T14:07:07.800Z,18.72
2017-11-06T14:07:21.238Z,18.66
2017-11-06T14:07:34.655Z,18.72
2017-11-06T14:07:47.036Z,18.74
2017-11-06T14:08:00.464Z,18.71
2017-11-06T14:08:13.398Z,18.69
2017-11-06T14:08:26.246Z,18.69
2017-11-06T14:08:38.584Z,18.71
2017-11-06T14:08:50.962Z,18.71
2017-11-06T14:09:03.818Z,18.69
2017-11-06T14:09:17.293Z,18.74
2017-11-06T14:09:30.690Z,18.82
2017-11-06T14:09:43.608Z,18.84
2017-11-06T14:09:56.563Z,18.76
2017-11-06T14:10:09.439Z,18.76
2017-11-06T14:10:22.855Z,18.86
2017-11-06T14:10:35.718Z,18.84
2017-11-06T14:10:49.130Z,18.87
2017-11-06T14:11:01.478Z,18.9
2017-11-06T14:11:14.898Z,18.84
2017-11-06T14:11:28.257Z,18.94
2017-11-06T14:11:41.736Z,18.91
2017-11-06T14:11:55.120Z,18.93
2017-11-06T14:12:08.544Z,18.96
2017-11-06T14:12:20.894Z,18.87
2017-11-06T14:12:34.269Z,18.94
2017-11-06T14:12:47.695Z,18.89
2017-11-06T14:13:01.138Z,18.87
2017-11-06T14:13:13.528Z,18.87
2017-11-06T14:13:26.991Z,18.91
2017-11-06T14:13:39.373Z,18.94
2017-11-06T14:13:51.683Z,18.96
2017-11-06T14:14:04.588Z,18.93
2017-11-06T14:14:17.470Z,18.96
2017-11-06T14:14:30.361Z,18.94
2017-11-06T14:14:43.763Z,18.91
2017-11-06T14:14:56.649Z,18.91
2017-11-06T14:15:08.496Z,18.9
2017-11-06T14:15:21.903Z,18.94
2017-11-06T14:15:34.795Z,18.99
2017-11-06T14:15:47.670Z,18.94
2017-11-06T14:16:00.042Z,18.96
2017-11-06T14:16:12.882Z,18.99
2017-11-06T14:16:25.806Z,18.97
2017-11-06T14:16:39.230Z,18.99
2017-11-06T14:16:52.092Z,18.99
2017-11-06T14:17:04.432Z,19.05
2017-11-06T14:17:17.904Z,18.99
2017-11-06T14:17:30.784Z,19.02
2017-11-06T14:17:43.659Z,19.1
2017-11-06T14:17:55.476Z,18.99
2017-11-06T14:18:08.388Z,19.1
2017-11-06T14:18:21.283Z,19
2017-11-06T14:18:34.709Z,18.97
2017-11-06T14:18:48.118Z,19.07
2017-11-06T14:19:01.087Z,18.99
2017-11-06T14:19:12.874Z,19.09
2017-11-06T14:19:25.756Z,19.06
2017-11-06T14:19:39.289Z,19.13
2017-11-06T14:19:52.750Z,19.06
2017-11-06T14:20:05.154Z,19.05
2017-11-06T14:20:18.050Z,19.05
2017-11-06T14:20:30.976Z,19.07
2017-11-06T14:20:43.920Z,19.12
2017-11-06T14:20:56.803Z,19.13
2017-11-06T14:21:09.715Z,19.1
2017-11-06T14:21:23.190Z,19.16
2017-11-06T14:21:36.274Z,19.07
2017-11-06T14:21:49.146Z,19.13
2017-11-06T14:22:01.507Z,19.13
2017-11-06T14:22:14.434Z,19.1
2017-11-06T14:22:27.891Z,19.09
2017-11-06T14:22:41.314Z,19.1
2017-11-06T14:22:54.776Z,19.12
2017-11-06T14:23:07.152Z,19.09
2017-11-06T14:23:20.064Z,19.12
2017-11-06T14:23:33.050Z,19.13
2017-11-06T14:23:46.525Z,19.06